Time;durP1;ratioP1;P1;durP2;ratioP2;P2;SDS_P1;SDS_P2;PMS_P1;PMS_P2;Temp;Humidity;BMP_temperature;BMP_pressure;BME280_temperature;BME280_humidity;BME280_pressure;Samples;Min_cycle;Max_cycle;Signal;HPM_P1;HPM_P2
2023/08/11 00:00:22;;;;;;;2.40;1.40;;;;;;;18.64;78.30;101221.66;5072557;28;20228;-77
2023/08/11 00:02:50;;;;;;;3.00;1.70;;;;;;;18.63;77.92;101218.16;5064596;28;20212;-77
2023/08/11 00:05:18;;;;;;;2.10;1.30;;;;;;;18.63;78.11;101219.91;5072861;28;20209;-76
2023/08/11 00:07:44;;;;;;;1.80;1.10;;;;;;;18.62;77.91;101226.16;5075681;28;20239;-78
2023/08/11 00:10:12;;;;;;;2.10;1.30;;;;;;;18.62;78.02;101229.66;5073149;28;20298;-78
2023/08/11 00:12:39;;;;;;;2.10;1.20;;;;;;;18.59;78.39;101229.78;5072057;28;20299;-78
2023/08/11 00:15:07;;;;;;;2.80;1.50;;;;;;;18.61;78.13;101238.53;5072545;28;20303;-78
2023/08/11 00:17:34;;;;;;;2.23;1.30;;;;;;;18.61;77.74;101235.00;5072596;28;20221;-78
2023/08/11 00:20:04;;;;;;;2.67;1.20;;;;;;;18.59;78.13;101226.25;5062835;28;20234;-77
2023/08/11 00:22:30;;;;;;;2.47;1.43;;;;;;;18.62;77.88;101226.16;5070943;28;20236;-77
2023/08/11 00:24:57;;;;;;;1.30;1.20;;;;;;;18.58;77.68;101240.41;5052380;28;20207;-78
2023/08/11 00:27:23;;;;;;;1.83;1.10;;;;;;;18.58;78.54;101225.41;5051896;28;20232;-76
2023/08/11 00:29:50;;;;;;;2.20;1.30;;;;;;;18.56;78.38;101218.47;5052048;28;20201;-76
2023/08/11 00:32:16;;;;;;;1.33;1.20;;;;;;;18.52;78.59;101224.81;5052426;28;20312;-76
2023/08/11 00:34:43;;;;;;;2.73;1.40;;;;;;;18.54;78.79;101210.59;5051693;28;20212;-77
2023/08/11 00:37:11;;;;;;;2.77;1.50;;;;;;;18.53;79.17;101205.34;5051807;28;20201;-76
2023/08/11 00:39:37;;;;;;;6.33;1.53;;;;;;;18.52;79.13;101201.00;5051280;28;20521;-77
2023/08/11 00:42:05;;;;;;;1.83;1.40;;;;;;;18.52;79.21;101198.34;5051722;28;20271;-77
2023/08/11 00:44:32;;;;;;;4.17;1.27;;;;;;;18.50;79.86;101187.00;5052427;28;20382;-77
2023/08/11 00:46:59;;;;;;;2.17;1.27;;;;;;;18.49;80.46;101180.81;5051551;28;20203;-76
2023/08/11 00:49:32;;;;;;;2.10;1.37;;;;;;;18.51;80.37;101164.91;5055350;28;20315;-76
2023/08/11 00:51:59;;;;;;;3.00;1.57;;;;;;;18.48;80.80;101163.25;5071632;28;20595;-76
2023/08/11 00:54:28;;;;;;;4.17;1.60;;;;;;;18.47;80.81;101161.50;5071842;28;20212;-77
2023/08/11 00:56:55;;;;;;;4.97;1.40;;;;;;;18.45;80.71;101164.25;5071599;28;20605;-77
2023/08/11 00:59:22;;;;;;;3.03;1.30;;;;;;;18.45;80.18;101168.63;5071058;28;20789;-77
2023/08/11 01:01:49;;;;;;;2.63;1.23;;;;;;;18.44;79.96;101180.16;5071407;28;20324;-78
2023/08/11 01:04:16;;;;;;;1.40;1.30;;;;;;;18.44;80.08;101180.16;5073330;28;20211;-78
2023/08/11 01:06:46;;;;;;;3.13;1.63;;;;;;;18.44;79.82;101188.94;5071152;28;20846;-77
2023/08/11 01:09:27;;;;;;;3.03;1.40;;;;;;;18.46;79.92;101189.75;5072388;28;20230;-77
2023/08/11 01:12:06;;;;;;;1.90;1.37;;;;;;;18.44;79.73;101188.09;5068026;28;20329;-77
2023/08/11 01:14:43;;;;;;;1.83;0.90;;;;;;;18.42;80.00;101185.50;5075697;28;20201;-77
2023/08/11 01:17:13;;;;;;;1.67;1.33;;;;;;;18.43;79.96;101181.94;5076229;28;20211;-77
2023/08/11 01:19:40;;;;;;;3.40;1.17;;;;;;;18.43;79.96;101171.38;5076273;28;20256;-77
2023/08/11 01:22:14;;;;;;;2.30;1.20;;;;;;;18.42;80.09;101174.91;5079582;28;20228;-77
2023/08/11 01:24:44;;;;;;;1.70;1.17;;;;;;;18.43;80.59;101170.50;5080301;28;20206;-77
2023/08/11 01:27:11;;;;;;;2.80;1.43;;;;;;;18.41;80.28;101169.69;5078994;28;20211;-77
2023/08/11 01:29:38;;;;;;;1.47;1.37;;;;;;;18.39;80.41;101164.50;5078164;28;20574;-77
2023/08/11 01:32:05;;;;;;;1.40;1.30;;;;;;;18.41;80.47;101161.75;5076712;28;20239;-77
2023/08/11 01:34:32;;;;;;;2.43;1.10;;;;;;;18.38;79.77;101186.53;5075128;28;20208;-77
2023/08/11 01:37:00;;;;;;;1.50;1.40;;;;;;;18.36;80.36;101182.25;5075214;28;20208;-78
2023/08/11 01:39:26;;;;;;;1.50;1.30;;;;;;;18.32;79.95;101184.16;5075489;28;20220;-78
2023/08/11 01:41:55;;;;;;;2.63;1.60;;;;;;;18.33;79.37;101191.13;5075105;28;20227;-77
2023/08/11 01:44:24;;;;;;;1.87;1.30;;;;;;;18.33;79.09;101204.34;5075210;28;20208;-77
2023/08/11 01:46:52;;;;;;;1.50;1.40;;;;;;;18.32;79.53;101201.78;5074690;28;20745;-77
2023/08/11 01:49:19;;;;;;;1.50;1.40;;;;;;;18.31;79.91;101192.97;5074695;28;20212;-78
2023/08/11 01:51:46;;;;;;;5.33;1.47;;;;;;;18.33;80.50;101182.34;5074244;28;20239;-77
2023/08/11 01:54:13;;;;;;;1.40;1.07;;;;;;;18.33;81.17;101158.56;5060660;28;20235;-77
2023/08/11 01:56:40;;;;;;;1.67;1.40;;;;;;;18.31;82.08;101141.91;5055876;28;20209;-77
2023/08/11 01:59:13;;;;;;;1.83;1.17;;;;;;;18.33;83.05;101121.56;5074591;28;20231;-77
2023/08/11 02:01:40;;;;;;;1.73;1.20;;;;;;;18.29;83.41;101110.25;5066408;28;20239;-77
2023/08/11 02:04:08;;;;;;;1.53;1.23;;;;;;;18.31;83.14;101110.19;5074363;28;20683;-77
2023/08/11 02:06:36;;;;;;;2.23;1.00;;;;;;;18.30;82.67;101117.25;5074304;28;20212;-77
2023/08/11 02:09:04;;;;;;;3.73;1.67;;;;;;;18.29;82.67;101119.97;5074635;28;20204;-77
2023/08/11 02:11:31;;;;;;;3.23;1.20;;;;;;;18.29;83.17;101119.97;5074402;28;20235;-77
2023/08/11 02:13:57;;;;;;;1.23;1.10;;;;;;;18.27;83.75;101104.16;5066376;28;20691;-77
2023/08/11 02:16:25;;;;;;;2.43;1.30;;;;;;;18.24;83.60;101086.66;5074541;28;20231;-77
2023/08/11 02:18:51;;;;;;;2.10;1.57;;;;;;;18.24;82.55;101109.59;5055051;28;20220;-77
2023/08/11 02:21:18;;;;;;;1.77;1.03;;;;;;;18.23;83.08;101107.84;5052399;28;20597;-77
2023/08/11 02:23:44;;;;;;;2.33;1.20;;;;;;;18.21;83.64;101097.34;5054757;28;20220;-77
2023/08/11 02:26:12;;;;;;;1.93;1.07;;;;;;;18.20;83.72;101095.63;5053736;28;20296;-77
2023/08/11 02:28:39;;;;;;;1.87;1.10;;;;;;;18.17;84.11;101087.81;5054003;28;20270;-77
2023/08/11 02:31:07;;;;;;;2.77;1.00;;;;;;;18.18;84.26;101078.13;5053607;28;20221;-78
2023/08/11 02:33:35;;;;;;;1.40;1.30;;;;;;;18.18;84.14;101072.84;5062517;28;20235;-77
2023/08/11 02:36:04;;;;;;;1.67;1.50;;;;;;;18.14;83.90;101073.88;5073361;28;20214;-77
2023/08/11 02:38:30;;;;;;;2.90;1.43;;;;;;;18.12;84.77;101073.94;5073937;28;20209;-77
2023/08/11 02:40:57;;;;;;;1.53;1.43;;;;;;;18.15;84.84;101063.25;5074111;28;20224;-77
2023/08/11 02:43:23;;;;;;;2.23;1.20;;;;;;;18.14;84.89;101056.25;5074176;28;20215;-77
2023/08/11 02:45:50;;;;;;;6.60;1.47;;;;;;;18.09;84.87;101058.19;5073590;28;20208;-77
2023/08/11 02:48:16;;;;;;;3.03;1.40;;;;;;;18.09;85.56;101046.78;5073702;28;20582;-77
2023/08/11 02:50:44;;;;;;;3.57;1.50;;;;;;;18.09;85.64;101036.22;5076993;28;20240;-78
2023/08/11 02:53:11;;;;;;;2.57;1.30;;;;;;;18.10;86.08;101032.66;5078714;28;20214;-79
2023/08/11 02:55:37;;;;;;;1.47;1.30;;;;;;;18.08;86.44;101016.88;5077429;28;20201;-77
2023/08/11 02:58:04;;;;;;;3.87;1.30;;;;;;;18.08;86.10;101027.44;5063909;28;20211;-77
2023/08/11 03:00:33;;;;;;;1.50;1.10;;;;;;;18.00;83.95;101059.44;5070334;28;20248;-77
2023/08/11 03:03:01;;;;;;;2.13;1.50;;;;;;;17.95;81.49;101124.78;5054974;28;20213;-77
2023/08/11 03:05:27;;;;;;;4.13;1.70;;;;;;;17.98;82.71;101113.28;5054526;28;20683;-77
2023/08/11 03:07:55;;;;;;;2.20;1.20;;;;;;;18.02;83.60;101101.66;5054678;28;20213;-78
2023/08/11 03:10:22;;;;;;;1.97;1.30;;;;;;;18.01;83.46;101097.28;5054610;28;20200;-77
2023/08/11 03:12:49;;;;;;;1.33;1.23;;;;;;;18.01;83.44;101100.78;5054721;28;20213;-77
2023/08/11 03:15:15;;;;;;;2.77;1.53;;;;;;;18.03;83.30;101098.94;5054694;28;20223;-77
2023/08/11 03:17:42;;;;;;;1.27;1.13;;;;;;;18.03;83.30;101103.38;5054759;28;20742;-77
2023/08/11 03:20:12;;;;;;;2.27;1.30;;;;;;;18.04;83.84;101094.53;5055346;28;20234;-77
2023/08/11 03:22:39;;;;;;;2.00;1.40;;;;;;;18.05;84.34;101085.66;5055731;28;20214;-77
2023/08/11 03:25:09;;;;;;;2.97;1.63;;;;;;;18.01;85.22;101063.78;5054132;28;20217;-77
2023/08/11 03:27:35;;;;;;;3.10;1.67;;;;;;;18.03;86.10;101045.25;5053690;28;20667;-77
2023/08/11 03:30:02;;;;;;;2.80;1.30;;;;;;;18.00;86.04;101037.47;5053668;28;20217;-77
2023/08/11 03:32:29;;;;;;;2.00;1.23;;;;;;;17.96;85.45;101049.94;5054024;28;20259;-77
2023/08/11 03:34:55;;;;;;;1.50;1.40;;;;;;;17.94;85.41;101051.75;5053505;28;20211;-77
2023/08/11 03:37:22;;;;;;;1.87;1.60;;;;;;;17.93;84.93;101060.59;5069078;28;20216;-77
2023/08/11 03:39:48;;;;;;;1.90;1.10;;;;;;;17.93;84.99;101072.94;5072513;28;20228;-77
2023/08/11 03:42:16;;;;;;;1.27;1.13;;;;;;;17.94;84.08;101080.81;5053838;28;20232;-78
2023/08/11 03:44:43;;;;;;;3.23;1.30;;;;;;;17.92;83.57;101095.88;5053470;28;20670;-77
2023/08/11 03:47:09;;;;;;;2.53;1.60;;;;;;;17.90;84.08;101095.06;5054025;28;20204;-77
2023/08/11 03:49:36;;;;;;;6.77;1.57;;;;;;;17.88;85.09;101075.78;5058205;28;20219;-77
2023/08/11 03:52:03;;;;;;;1.37;1.20;;;;;;;17.87;84.98;101071.41;5073189;28;20743;-77
2023/08/11 03:54:30;;;;;;;2.27;1.47;;;;;;;17.43;84.71;101095.91;5073615;28;20230;-77
2023/08/11 03:56:56;;;;;;;1.90;1.80;;;;;;;17.06;86.57;101068.22;5072777;28;20214;-77
2023/08/11 03:59:24;;;;;;;2.87;1.67;;;;;;;16.85;87.60;101040.84;5072566;28;20204;-76
2023/08/11 04:01:51;;;;;;;5.43;1.83;;;;;;;16.88;87.88;101024.03;5072832;28;20227;-76
2023/08/11 04:04:17;;;;;;;2.93;1.40;;;;;;;16.95;87.92;101020.28;5072836;28;20206;-77
2023/08/11 04:06:44;;;;;;;1.90;1.30;;;;;;;17.06;87.68;101022.53;5072403;28;20640;-77
2023/08/11 04:09:11;;;;;;;1.80;1.70;;;;;;;17.19;87.25;101028.22;5073439;28;20205;-77
2023/08/11 04:11:37;;;;;;;1.50;1.40;;;;;;;17.22;87.21;101030.72;5073256;28;20234;-76
2023/08/11 04:14:04;;;;;;;1.73;1.43;;;;;;;17.27;87.04;101040.19;5072811;28;20222;-77
2023/08/11 04:16:32;;;;;;;1.60;1.50;;;;;;;17.33;86.32;101051.47;5071760;28;20211;-77
2023/08/11 04:18:59;;;;;;;3.27;1.40;;;;;;;17.30;86.03;101072.66;5071441;28;20202;-77
2023/08/11 04:21:27;;;;;;;1.50;1.40;;;;;;;17.25;86.37;101072.84;5072242;28;20237;-77
2023/08/11 04:23:54;;;;;;;1.67;1.57;;;;;;;17.21;86.83;101065.97;5071885;28;20212;-77
2023/08/11 04:26:20;;;;;;;2.23;1.30;;;;;;;17.22;86.82;101059.75;5071499;28;20215;-76
2023/08/11 04:28:47;;;;;;;2.20;1.63;;;;;;;17.24;87.11;101055.28;5072072;28;20208;-77
2023/08/11 04:31:14;;;;;;;7.03;2.37;;;;;;;17.20;87.28;101056.31;5072023;28;20220;-77
2023/08/11 04:33:42;;;;;;;2.47;1.63;;;;;;;17.19;87.36;101051.97;5072471;28;20242;-77
2023/08/11 04:36:08;;;;;;;1.90;1.77;;;;;;;17.21;87.48;101043.06;5071294;28;20208;-77
2023/08/11 04:38:35;;;;;;;3.50;1.83;;;;;;;17.20;87.28;101053.66;5071783;28;20200;-77
2023/08/11 04:41:02;;;;;;;1.93;1.37;;;;;;;17.15;87.29;101048.56;5071607;28;20277;-77
2023/08/11 04:43:29;;;;;;;2.00;1.47;;;;;;;17.21;87.48;101039.56;5071495;28;20204;-76
2023/08/11 04:45:55;;;;;;;1.70;1.60;;;;;;;17.20;87.34;101043.97;5071549;28;20214;-77
2023/08/11 04:48:22;;;;;;;3.30;1.63;;;;;;;17.23;87.49;101046.50;5071739;28;20214;-77
2023/08/11 04:50:52;;;;;;;2.60;1.47;;;;;;;17.21;87.74;101044.84;5071238;28;20285;-77
2023/08/11 04:53:19;;;;;;;1.70;1.60;;;;;;;17.18;88.00;101042.31;5071587;28;20204;-77
2023/08/11 04:55:45;;;;;;;2.40;1.87;;;;;;;17.16;88.13;101028.31;5071514;28;20207;-77
2023/08/11 04:58:13;;;;;;;2.73;1.60;;;;;;;17.18;88.25;101042.31;5068140;28;20208;-77
2023/08/11 05:00:40;;;;;;;4.17;2.23;;;;;;;17.12;88.59;101026.72;5051523;28;20236;-76
2023/08/11 05:03:06;;;;;;;2.67;1.43;;;;;;;17.12;88.75;101022.28;5054838;28;20639;-77
2023/08/11 05:05:33;;;;;;;2.07;1.60;;;;;;;17.13;88.76;101026.66;5070731;28;20212;-77
2023/08/11 05:08:03;;;;;;;2.60;1.70;;;;;;;17.17;88.38;101024.78;5071560;28;20203;-77
2023/08/11 05:10:29;;;;;;;1.57;1.47;;;;;;;17.22;88.62;101028.09;5071267;28;20221;-77
2023/08/11 05:12:56;;;;;;;3.20;1.53;;;;;;;17.22;88.62;101033.38;5071495;28;20215;-76
2023/08/11 05:15:22;;;;;;;4.93;2.13;;;;;;;17.26;88.44;101038.50;5070995;28;20208;-77
2023/08/11 05:17:49;;;;;;;2.33;1.40;;;;;;;17.29;88.44;101037.50;5071439;28;20204;-76
2023/08/11 05:20:17;;;;;;;2.67;2.47;;;;;;;17.30;88.75;101036.56;5071042;28;20255;-76
2023/08/11 05:22:44;;;;;;;2.43;1.83;;;;;;;17.31;88.42;101045.38;5072010;28;20208;-77
2023/08/11 05:25:12;;;;;;;2.30;2.10;;;;;;;17.27;89.25;101040.19;5063432;28;20260;-76
2023/08/11 05:27:39;;;;;;;2.40;2.10;;;;;;;17.23;89.91;101025.41;5071786;28;20208;-76
2023/08/11 05:30:07;;;;;;;2.90;1.60;;;;;;;17.21;90.13;101013.19;5071313;28;20664;-78
2023/08/11 05:32:34;;;;;;;2.37;1.83;;;;;;;17.20;90.50;101012.31;5071689;28;20289;-78
2023/08/11 05:35:02;;;;;;;2.10;1.97;;;;;;;17.23;90.55;100998.16;5071077;28;20255;-77
2023/08/11 05:37:28;;;;;;;2.63;2.40;;;;;;;17.26;90.66;100992.75;5071438;28;20231;-77
2023/08/11 05:39:55;;;;;;;2.10;1.90;;;;;;;17.27;90.75;100997.97;5071462;28;20203;-78
2023/08/11 05:42:23;;;;;;;2.70;1.97;;;;;;;17.26;90.65;100998.91;5072851;28;20227;-78
2023/08/11 05:44:50;;;;;;;2.03;1.90;;;;;;;17.32;90.70;100997.78;5072522;28;20291;-77
2023/08/11 05:47:16;;;;;;;2.67;2.47;;;;;;;17.35;90.52;101002.13;5071701;28;20209;-78
2023/08/11 05:49:43;;;;;;;1.97;1.87;;;;;;;17.33;91.48;100986.34;5070394;28;20233;-77
2023/08/11 05:52:09;;;;;;;2.83;1.70;;;;;;;17.30;91.10;100989.09;5070851;28;20225;-77
2023/08/11 05:54:36;;;;;;;1.83;1.73;;;;;;;17.33;90.68;100996.91;5070876;28;20205;-76
2023/08/11 05:57:03;;;;;;;2.23;2.03;;;;;;;17.31;90.31;101013.72;5073774;28;20666;-77
2023/08/11 05:59:30;;;;;;;1.90;1.80;;;;;;;17.30;90.45;101011.97;5073936;28;20211;-77
2023/08/11 06:01:57;;;;;;;2.10;1.73;;;;;;;17.33;86.48;101081.34;5073992;28;20637;-77
2023/08/11 06:04:24;;;;;;;2.90;1.70;;;;;;;17.36;84.50;101117.31;5073868;28;20202;-76
2023/08/11 06:06:51;;;;;;;1.50;1.40;;;;;;;17.40;84.98;101148.81;5074853;28;20227;-76
2023/08/11 06:09:17;;;;;;;5.13;1.83;;;;;;;17.46;86.42;101143.31;5074387;28;20286;-77
2023/08/11 06:11:44;;;;;;;2.37;2.17;;;;;;;17.48;84.74;101143.25;5073845;28;20226;-77
2023/08/11 06:14:10;;;;;;;2.50;1.70;;;;;;;17.56;85.63;101145.59;5074271;28;20298;-77
2023/08/11 06:16:38;;;;;;;2.50;1.87;;;;;;;17.58;84.13;101152.56;5074317;28;20677;-77
2023/08/11 06:19:05;;;;;;;2.27;1.97;;;;;;;17.72;83.80;101185.50;5074167;28;20216;-77
2023/08/11 06:21:31;;;;;;;1.90;1.60;;;;;;;17.80;84.87;101162.31;5073461;28;20232;-77
2023/08/11 06:23:58;;;;;;;2.17;1.73;;;;;;;17.83;84.28;101171.03;5074531;28;20207;-80
2023/08/11 06:26:33;;;;;;;1.87;1.67;;;;;;;17.92;82.22;101209.47;5072840;28;20211;-77
2023/08/11 06:29:08;;;;;;;2.07;1.87;;;;;;;18.00;84.02;101193.31;5077069;28;20207;-78
2023/08/11 06:31:35;;;;;;;1.73;1.23;;;;;;;18.10;82.13;101226.41;5067804;28;20274;-78
2023/08/11 06:34:03;;;;;;;1.67;1.57;;;;;;;18.16;82.00;101231.44;5053108;28;20578;-78
2023/08/11 06:36:29;;;;;;;2.50;1.70;;;;;;;18.20;82.93;101222.47;5073411;28;20215;-78
2023/08/11 06:38:56;;;;;;;2.10;1.90;;;;;;;18.23;83.85;101190.63;5075609;28;20306;-79
2023/08/11 06:41:23;;;;;;;2.23;1.90;;;;;;;18.21;84.91;101160.75;5076081;28;20228;-78
2023/08/11 06:43:49;;;;;;;2.10;1.80;;;;;;;18.21;82.05;101202.19;5074271;28;20203;-78
2023/08/11 06:46:16;;;;;;;1.67;1.50;;;;;;;18.31;81.07;101221.19;5076037;28;20200;-78
2023/08/11 06:48:42;;;;;;;2.23;1.70;;;;;;;18.44;81.97;101247.09;5076267;28;20201;-79
2023/08/11 06:51:10;;;;;;;1.77;1.63;;;;;;;18.55;83.55;101207.03;5073068;28;20235;-79
2023/08/11 06:53:36;;;;;;;1.90;1.80;;;;;;;18.55;83.41;101208.78;5063119;28;20201;-78
2023/08/11 06:56:03;;;;;;;1.50;1.30;;;;;;;18.54;85.17;101175.34;5062647;28;20208;-76
2023/08/11 06:58:30;;;;;;;3.13;1.60;;;;;;;18.53;83.23;101178.91;5072757;28;20306;-76
2023/08/11 07:00:57;;;;;;;1.93;1.67;;;;;;;18.59;80.47;101229.78;5073187;28;20234;-75
2023/08/11 07:03:23;;;;;;;1.63;1.50;;;;;;;18.65;77.91;101274.50;5071962;28;20200;-76
2023/08/11 07:05:51;;;;;;;1.47;1.37;;;;;;;18.79;79.65;101283.66;5071641;28;20208;-76
2023/08/11 07:08:19;;;;;;;2.53;1.67;;;;;;;18.87;79.51;101309.84;5060635;28;20738;-75
2023/08/11 07:10:45;;;;;;;1.63;1.53;;;;;;;18.94;79.17;101314.81;5052471;28;20617;-75
2023/08/11 07:13:12;;;;;;;1.47;1.20;;;;;;;18.96;80.77;101278.59;5052912;28;20212;-76
2023/08/11 07:15:40;;;;;;;1.43;1.30;;;;;;;19.01;76.03;101353.38;5067605;28;20610;-76
2023/08/11 07:18:07;;;;;;;1.70;1.47;;;;;;;19.10;79.67;101316.88;5071389;28;20209;-76
2023/08/11 07:20:33;;;;;;;1.30;1.10;;;;;;;19.18;73.27;101431.22;5072175;28;20208;-76
2023/08/11 07:23:00;;;;;;;1.10;1.10;;;;;;;19.20;75.15;101394.97;5072611;28;20196;-75
2023/08/11 07:25:28;;;;;;;1.03;1.00;;;;;;;19.33;73.04;101465.06;5072213;28;20667;-77
2023/08/11 07:27:55;;;;;;;2.03;1.47;;;;;;;19.39;75.75;101406.56;5072753;28;20205;-76
2023/08/11 07:30:21;;;;;;;1.77;1.67;;;;;;;19.38;74.17;101435.72;5064235;28;20204;-76
2023/08/11 07:32:48;;;;;;;1.20;1.10;;;;;;;19.50;73.93;101456.41;5072699;28;20200;-76
2023/08/11 07:35:14;;;;;;;1.00;1.00;;;;;;;19.52;74.94;101425.44;5071722;28;20215;-76
2023/08/11 07:37:41;;;;;;;1.43;1.30;;;;;;;19.55;75.87;101441.22;5072250;28;20594;-76
2023/08/11 07:40:09;;;;;;;2.10;1.33;;;;;;;19.56;75.78;101391.75;5072215;28;20212;-76
2023/08/11 07:42:37;;;;;;;2.60;1.50;;;;;;;19.62;79.16;101360.59;5072173;28;20225;-76
2023/08/11 07:45:04;;;;;;;1.30;1.20;;;;;;;19.68;77.25;101338.25;5072088;28;20209;-76
2023/08/11 07:47:31;;;;;;;1.73;1.10;;;;;;;19.73;79.20;101346.06;5072228;28;20294;-76
2023/08/11 07:49:57;;;;;;;1.03;0.93;;;;;;;19.68;78.97;101305.63;5071250;28;20222;-76
2023/08/11 07:52:24;;;;;;;1.03;0.93;;;;;;;19.64;71.34;101419.66;5052013;28;20709;-76
2023/08/11 07:54:51;;;;;;;2.13;1.23;;;;;;;19.73;71.60;101489.97;5059526;28;20204;-76
2023/08/11 07:57:17;;;;;;;0.83;0.83;;;;;;;19.79;73.83;101467.66;5071811;28;20213;-76
2023/08/11 07:59:45;;;;;;;0.90;0.87;;;;;;;19.83;72.47;101472.78;5071413;28;20717;-76
2023/08/11 08:02:13;;;;;;;1.57;1.07;;;;;;;19.89;69.79;101524.66;5071794;28;20235;-76
2023/08/11 08:04:40;;;;;;;1.00;0.90;;;;;;;20.02;71.79;101515.28;5071664;28;20294;-76
2023/08/11 08:07:06;;;;;;;1.17;1.03;;;;;;;20.15;74.40;101469.72;5071477;28;20211;-76
2023/08/11 08:09:33;;;;;;;1.97;0.77;;;;;;;20.14;76.10;101384.03;5071838;28;20623;-76
2023/08/11 08:12:01;;;;;;;0.83;0.83;;;;;;;20.19;73.74;101435.03;5071340;28;20269;-76
2023/08/11 08:14:27;;;;;;;0.83;0.80;;;;;;;20.20;72.75;101457.13;5071770;28;20566;-76
2023/08/11 08:16:56;;;;;;;0.80;0.80;;;;;;;20.26;73.18;101474.53;5073490;28;20579;-76
2023/08/11 08:19:22;;;;;;;1.37;0.87;;;;;;;20.36;68.45;101553.66;5077022;28;20218;-76
2023/08/11 08:21:49;;;;;;;1.23;0.70;;;;;;;20.44;67.56;101601.94;5074717;28;20325;-75
2023/08/11 08:24:15;;;;;;;6.30;1.00;;;;;;;20.55;69.90;101604.13;5072967;28;20254;-76
2023/08/11 08:26:43;;;;;;;0.90;0.90;;;;;;;20.59;66.30;101657.94;5071661;28;20211;-76
2023/08/11 08:29:09;;;;;;;0.80;0.80;;;;;;;20.69;67.31;101646.03;5071380;28;20212;-76
2023/08/11 08:31:36;;;;;;;0.60;0.60;;;;;;;20.74;68.04;101656.47;5071583;28;20278;-76
2023/08/11 08:34:04;;;;;;;0.77;0.67;;;;;;;20.82;68.05;101643.72;5072802;28;20208;-75
2023/08/11 08:36:30;;;;;;;1.33;1.07;;;;;;;20.87;71.56;101574.50;5050981;28;20212;-76
2023/08/11 08:38:57;;;;;;;0.83;0.60;;;;;;;20.89;70.48;101538.16;5051433;28;20213;-76
2023/08/11 08:41:28;;;;;;;0.87;0.83;;;;;;;20.87;68.49;101590.44;5051095;28;20260;-75
2023/08/11 08:43:55;;;;;;;0.70;0.70;;;;;;;20.91;68.71;101582.28;5051593;28;20208;-76
2023/08/11 08:46:25;;;;;;;0.80;0.80;;;;;;;20.95;68.54;101567.06;5067650;28;20209;-75
2023/08/11 08:48:56;;;;;;;0.70;0.70;;;;;;;20.94;66.42;101626.41;5051077;28;20203;-75
2023/08/11 08:51:23;;;;;;;0.70;0.70;;;;;;;20.95;67.34;101654.66;5069984;28;20231;-76
2023/08/11 08:53:50;;;;;;;0.40;0.40;;;;;;;21.03;64.69;101664.06;5071404;28;20212;-75
2023/08/11 08:56:18;;;;;;;0.50;0.50;;;;;;;21.07;63.21;101724.97;5070897;28;20215;-75
2023/08/11 08:58:45;;;;;;;2.03;0.73;;;;;;;21.14;64.10;101727.28;5070935;28;20651;-76
2023/08/11 09:01:13;;;;;;;0.40;0.40;;;;;;;21.26;62.66;101759.59;5070969;28;20236;-75
2023/08/11 09:03:40;;;;;;;1.20;0.40;;;;;;;21.33;59.63;101830.13;5070847;28;20685;-75
2023/08/11 09:06:07;;;;;;;0.50;0.50;;;;;;;21.36;60.94;101817.53;5070877;28;20208;-75
2023/08/11 09:08:39;;;;;;;0.60;0.43;;;;;;;21.41;61.30;101828.84;5071205;28;20231;-76
2023/08/11 09:11:07;;;;;;;0.63;0.63;;;;;;;21.46;60.97;101815.41;5070805;28;20225;-76
2023/08/11 09:13:34;;;;;;;1.20;0.53;;;;;;;21.54;62.03;101783.19;5070352;28;20692;-76
2023/08/11 09:16:00;;;;;;;1.03;0.70;;;;;;;21.63;63.22;101755.38;5070293;28;20659;-76
2023/08/11 09:18:27;;;;;;;0.60;0.60;;;;;;;21.68;63.49;101740.91;5070764;28;20204;-76
2023/08/11 09:20:54;;;;;;;0.70;0.60;;;;;;;21.68;64.20;101717.00;5070925;28;20216;-75
2023/08/11 09:23:20;;;;;;;0.60;0.60;;;;;;;21.73;64.92;101706.19;5070941;28;20252;-76
2023/08/11 09:25:49;;;;;;;1.53;1.00;;;;;;;21.70;63.56;101699.19;5070541;28;20682;-76
2023/08/11 09:28:15;;;;;;;0.90;0.60;;;;;;;21.71;60.21;101766.53;5070383;28;20205;-75
2023/08/11 09:30:42;;;;;;;0.87;0.63;;;;;;;21.84;63.59;101711.84;5072364;28;20224;-76
2023/08/11 09:33:09;;;;;;;1.50;0.70;;;;;;;21.86;64.16;101670.09;5074376;28;20214;-76
2023/08/11 09:35:36;;;;;;;0.80;0.80;;;;;;;21.90;65.11;101657.53;5073016;28;20201;-76
2023/08/11 09:38:04;;;;;;;1.40;0.67;;;;;;;21.84;62.96;101673.78;5074600;28;20549;-76
2023/08/11 09:40:32;;;;;;;0.83;0.60;;;;;;;21.89;67.31;101638.06;5066263;28;20205;-75
2023/08/11 09:43:00;;;;;;;2.40;0.70;;;;;;;21.92;62.41;101669.84;5074610;28;20231;-75
2023/08/11 09:45:27;;;;;;;0.70;0.70;;;;;;;21.96;60.68;101727.25;5074400;28;20201;-75
2023/08/11 09:47:53;;;;;;;0.80;0.67;;;;;;;22.02;61.85;101720.78;5074596;28;20205;-76
2023/08/11 09:50:21;;;;;;;3.00;0.60;;;;;;;22.08;61.50;101688.59;5073506;28;20220;-76
2023/08/11 09:52:49;;;;;;;0.70;0.70;;;;;;;22.10;61.23;101742.59;5074530;28;20194;-76
2023/08/11 09:55:16;;;;;;;0.77;0.77;;;;;;;22.16;63.28;101693.53;5074379;28;20204;-76
2023/08/11 09:57:44;;;;;;;1.10;0.90;;;;;;;22.22;62.62;101690.59;5074055;28;20201;-76
2023/08/11 10:00:13;;;;;;;1.13;0.80;;;;;;;22.25;58.88;101746.34;5074080;28;20209;-75
2023/08/11 10:02:44;;;;;;;1.13;0.90;;;;;;;22.34;65.28;101731.75;5073900;28;20228;-76
2023/08/11 10:05:12;;;;;;;2.00;0.90;;;;;;;22.36;60.57;101762.66;5073150;28;20204;-77
2023/08/11 10:07:43;;;;;;;0.93;0.90;;;;;;;22.37;59.66;101814.91;5055349;28;20217;-78
2023/08/11 10:10:13;;;;;;;1.10;0.70;;;;;;;22.50;61.45;101747.84;5057625;28;20676;-78
2023/08/11 10:12:46;;;;;;;1.60;1.00;;;;;;;22.49;57.69;101825.94;5055529;28;20201;-79
2023/08/11 10:15:16;;;;;;;0.83;0.83;;;;;;;22.61;59.10;101825.34;5058013;28;20198;-81
2023/08/11 10:17:43;;;;;;;1.53;0.87;;;;;;;22.73;62.28;101765.34;5072435;28;20275;-79
2023/08/11 10:20:11;;;;;;;1.20;1.10;;;;;;;22.83;60.66;101761.28;5078811;28;20208;-77
2023/08/11 10:22:37;;;;;;;0.90;0.90;;;;;;;22.90;65.12;101674.84;5079404;28;20232;-78
2023/08/11 10:25:06;;;;;;;2.10;1.40;;;;;;;22.95;62.12;101694.13;5075284;28;20437;-77
2023/08/11 10:27:34;;;;;;;2.17;1.00;;;;;;;22.95;61.14;101694.13;5074889;28;20212;-76
2023/08/11 10:30:04;;;;;;;2.83;1.13;;;;;;;23.07;63.78;101670.47;5073792;28;20210;-77
2023/08/11 10:32:34;;;;;;;1.23;1.10;;;;;;;23.13;59.74;101739.41;5074509;28;20729;-76
2023/08/11 10:35:01;;;;;;;2.03;1.20;;;;;;;23.17;60.83;101748.97;5074337;28;20201;-76
2023/08/11 10:37:30;;;;;;;1.10;1.00;;;;;;;23.30;63.08;101712.78;5073295;28;20213;-76
2023/08/11 10:40:06;;;;;;;3.13;1.50;;;;;;;23.34;58.56;101783.63;5073682;28;20236;-75
2023/08/11 10:42:36;;;;;;;1.50;1.40;;;;;;;23.42;60.14;101711.28;5071476;28;20624;-75
2023/08/11 10:45:09;;;;;;;3.20;1.07;;;;;;;23.48;57.55;101806.88;5073272;28;20215;-76
2023/08/11 10:47:38;;;;;;;1.50;1.40;;;;;;;23.61;60.88;101772.47;5064673;28;20220;-75
2023/08/11 10:50:08;;;;;;;1.20;1.10;;;;;;;23.70;58.31;101782.63;5072762;28;20728;-75
2023/08/11 10:52:35;;;;;;;2.03;1.10;;;;;;;23.64;56.78;101838.09;5053121;28;20217;-75
2023/08/11 10:55:03;;;;;;;1.40;1.27;;;;;;;23.62;55.16;101909.28;5053349;28;20209;-76
2023/08/11 10:57:31;;;;;;;1.67;1.30;;;;;;;23.68;54.76;101892.97;5052334;28;20217;-76
2023/08/11 10:59:57;;;;;;;1.90;1.10;;;;;;;23.70;54.67;101934.63;5052720;28;20209;-76
2023/08/11 11:02:25;;;;;;;1.23;1.13;;;;;;;23.77;54.75;101897.84;5054195;28;20259;-76
2023/08/11 11:04:53;;;;;;;1.73;1.30;;;;;;;23.84;54.81;101936.63;5072933;28;20258;-75
2023/08/11 11:07:22;;;;;;;2.27;1.17;;;;;;;23.97;55.33;101918.19;5072430;28;20205;-75
2023/08/11 11:09:51;;;;;;;2.40;1.47;;;;;;;24.09;55.10;101914.88;5072959;28;20206;-76
2023/08/11 11:12:17;;;;;;;1.60;1.30;;;;;;;24.21;53.82;101918.72;5072670;28;20228;-76
2023/08/11 11:14:44;;;;;;;1.80;1.10;;;;;;;24.29;55.83;101919.16;5059859;28;20224;-75
2023/08/11 11:17:11;;;;;;;1.50;1.40;;;;;;;24.44;59.10;101882.81;5052924;28;20217;-75
2023/08/11 11:19:37;;;;;;;2.10;1.23;;;;;;;24.55;56.29;101850.19;5064210;28;20209;-75
2023/08/11 11:22:07;;;;;;;1.40;1.30;;;;;;;24.51;53.60;101924.25;5074005;28;20286;-75
2023/08/11 11:24:34;;;;;;;1.57;1.20;;;;;;;24.42;52.27;101943.41;5072752;28;20243;-75